sensor_id;sensor_type;location;lat;lon;timestamp;pressure;altitude;pressure_sealevel;temperature;humidity
29383;BME280;16365;51.598;7.668;2022-09-03T00:00:53;100607.22;;;23.64;28.53
29383;BME280;16365;51.598;7.668;2022-09-03T00:03:40;100612.50;;;23.58;28.46
29383;BME280;16365;51.598;7.668;2022-09-03T00:06:30;100614.16;;;23.55;28.43
29383;BME280;16365;51.598;7.668;2022-09-03T00:11:39;100604.88;;;23.51;28.61
29383;BME280;16365;51.598;7.668;2022-09-03T00:14:18;100607.31;;;23.49;28.64
29383;BME280;16365;51.598;7.668;2022-09-03T00:16:50;100607.31;;;23.49;28.76
29383;BME280;16365;51.598;7.668;2022-09-03T00:19:30;100610.22;;;23.46;28.89
29383;BME280;16365;51.598;7.668;2022-09-03T00:22:04;100606.97;;;23.44;28.69
29383;BME280;16365;51.598;7.668;2022-09-03T00:24:35;100606.97;;;23.44;28.83
29383;BME280;16365;51.598;7.668;2022-09-03T00:27:06;100606.19;;;23.40;29.04
29383;BME280;16365;51.598;7.668;2022-09-03T00:29:51;100611.50;;;23.34;29.12
29383;BME280;16365;51.598;7.668;2022-09-03T00:32:42;100609.53;;;23.31;29.37
29383;BME280;16365;51.598;7.668;2022-09-03T00:35:17;100605.06;;;23.30;29.15
29383;BME280;16365;51.598;7.668;2022-09-03T00:37:47;100615.59;;;23.29;28.95
29383;BME280;16365;51.598;7.668;2022-09-03T00:40:30;100605.94;;;23.23;29.34
29383;BME280;16365;51.598;7.668;2022-09-03T00:48:20;100607.22;;;23.15;29.08
29383;BME280;16365;51.598;7.668;2022-09-03T00:51:06;100606.06;;;23.13;29.29
29383;BME280;16365;51.598;7.668;2022-09-03T00:53:55;100608.91;;;23.09;29.31
29383;BME280;16365;51.598;7.668;2022-09-03T00:59:31;100602.47;;;23.01;29.44
29383;BME280;16365;51.598;7.668;2022-09-03T01:02:30;100598.09;;;22.97;29.69
29383;BME280;16365;51.598;7.668;2022-09-03T01:08:19;100609.03;;;22.88;29.41
29383;BME280;16365;51.598;7.668;2022-09-03T01:16:11;100609.13;;;22.73;29.83
29383;BME280;16365;51.598;7.668;2022-09-03T01:19:03;100612.78;;;22.74;29.55
29383;BME280;16365;51.598;7.668;2022-09-03T01:30:35;100614.47;;;22.61;30.12
29383;BME280;16365;51.598;7.668;2022-09-03T01:33:08;100618.94;;;22.58;29.76
29383;BME280;16365;51.598;7.668;2022-09-03T01:53:02;100607.75;;;22.33;30.68
29383;BME280;16365;51.598;7.668;2022-09-03T01:58:20;100608.59;;;22.23;30.71
29383;BME280;16365;51.598;7.668;2022-09-03T02:00:54;100600.16;;;22.19;30.84
29383;BME280;16365;51.598;7.668;2022-09-03T02:03:25;100604.59;;;22.17;30.49
29383;BME280;16365;51.598;7.668;2022-09-03T02:05:59;100604.59;;;22.13;30.58
29383;BME280;16365;51.598;7.668;2022-09-03T02:08:25;100598.94;;;22.10;30.59
29383;BME280;16365;51.598;7.668;2022-09-03T02:10:54;100603.00;;;22.05;31.02
29383;BME280;16365;51.598;7.668;2022-09-03T02:13:46;100594.94;;;22.00;30.72
29383;BME280;16365;51.598;7.668;2022-09-03T02:16:26;100595.38;;;21.95;30.93
29383;BME280;16365;51.598;7.668;2022-09-03T02:18:55;100601.00;;;21.95;31.17
29383;BME280;16365;51.598;7.668;2022-09-03T02:21:25;100594.59;;;21.91;30.90
29383;BME280;16365;51.598;7.668;2022-09-03T02:23:52;100598.22;;;21.88;30.95
29383;BME280;16365;51.598;7.668;2022-09-03T02:26:21;100595.03;;;21.82;31.17
29383;BME280;16365;51.598;7.668;2022-09-03T02:28:50;100601.06;;;21.80;31.14
29383;BME280;16365;51.598;7.668;2022-09-03T02:31:17;100596.25;;;21.77;31.17
29383;BME280;16365;51.598;7.668;2022-09-03T02:33:46;100594.63;;;21.73;31.31
29383;BME280;16365;51.598;7.668;2022-09-03T02:36:16;100595.44;;;21.70;31.44
29383;BME280;16365;51.598;7.668;2022-09-03T02:38:45;100591.44;;;21.67;31.21
29383;BME280;16365;51.598;7.668;2022-09-03T02:41:12;100599.91;;;21.64;31.20
29383;BME280;16365;51.598;7.668;2022-09-03T02:43:52;100593.88;;;21.58;31.53
29383;BME280;16365;51.598;7.668;2022-09-03T02:46:22;100595.09;;;21.57;31.41
29383;BME280;16365;51.598;7.668;2022-09-03T02:48:53;100600.31;;;21.55;31.18
29383;BME280;16365;51.598;7.668;2022-09-03T02:51:20;100600.31;;;21.51;31.59
29383;BME280;16365;51.598;7.668;2022-09-03T02:53:46;100601.53;;;21.50;31.76
29383;BME280;16365;51.598;7.668;2022-09-03T02:56:13;100599.13;;;21.49;31.66
29383;BME280;16365;51.598;7.668;2022-09-03T02:58:39;100599.53;;;21.47;31.66
29383;BME280;16365;51.598;7.668;2022-09-03T03:01:06;100595.91;;;21.47;31.54
29383;BME280;16365;51.598;7.668;2022-09-03T03:03:33;100586.22;;;21.44;31.83
29383;BME280;16365;51.598;7.668;2022-09-03T03:06:02;100583.81;;;21.43;31.91
29383;BME280;16365;51.598;7.668;2022-09-03T03:08:29;100588.66;;;21.42;31.88
29383;BME280;16365;51.598;7.668;2022-09-03T03:10:58;100591.06;;;21.40;31.83
29383;BME280;16365;51.598;7.668;2022-09-03T03:13:26;100582.22;;;21.38;31.91
29383;BME280;16365;51.598;7.668;2022-09-03T03:16:01;100591.09;;;21.33;32.41
29383;BME280;16365;51.598;7.668;2022-09-03T03:18:28;100589.88;;;21.34;32.05
29383;BME280;16365;51.598;7.668;2022-09-03T03:20:55;100593.50;;;21.31;31.84
29383;BME280;16365;51.598;7.668;2022-09-03T03:23:21;100587.44;;;21.29;31.98
29383;BME280;16365;51.598;7.668;2022-09-03T03:25:48;100590.66;;;21.27;32.24
29383;BME280;16365;51.598;7.668;2022-09-03T03:28:15;100582.22;;;21.27;32.28
29383;BME280;16365;51.598;7.668;2022-09-03T03:30:43;100588.22;;;21.26;32.12
29383;BME280;16365;51.598;7.668;2022-09-03T03:33:12;100583.00;;;21.24;32.00
29383;BME280;16365;51.598;7.668;2022-09-03T03:35:39;100580.97;;;21.21;32.41
29383;BME280;16365;51.598;7.668;2022-09-03T03:38:07;100581.41;;;21.20;32.18
29383;BME280;16365;51.598;7.668;2022-09-03T03:40:37;100585.00;;;21.17;32.40
29383;BME280;16365;51.598;7.668;2022-09-03T03:43:03;100576.97;;;21.15;32.19
29383;BME280;16365;51.598;7.668;2022-09-03T03:45:30;100579.41;;;21.13;32.29
29383;BME280;16365;51.598;7.668;2022-09-03T03:47:57;100578.19;;;21.11;32.46
29383;BME280;16365;51.598;7.668;2022-09-03T03:50:24;100580.59;;;21.09;32.33
29383;BME280;16365;51.598;7.668;2022-09-03T03:52:51;100575.34;;;21.07;32.55
29383;BME280;16365;51.598;7.668;2022-09-03T03:55:17;100577.38;;;21.07;32.55
29383;BME280;16365;51.598;7.668;2022-09-03T03:57:45;100577.34;;;21.03;32.63
29383;BME280;16365;51.598;7.668;2022-09-03T04:00:12;100566.50;;;21.01;32.69
29383;BME280;16365;51.598;7.668;2022-09-03T04:02:39;100566.91;;;21.00;32.71
29383;BME280;16365;51.598;7.668;2022-09-03T04:05:06;100569.72;;;20.96;32.48
29383;BME280;16365;51.598;7.668;2022-09-03T04:07:33;100568.53;;;20.94;32.90
29383;BME280;16365;51.598;7.668;2022-09-03T04:10:00;100566.50;;;20.91;32.97
29383;BME280;16365;51.598;7.668;2022-09-03T04:12:26;100569.72;;;20.89;32.99
29383;BME280;16365;51.598;7.668;2022-09-03T04:14:53;100568.50;;;20.87;32.93
29383;BME280;16365;51.598;7.668;2022-09-03T04:17:19;100561.69;;;20.84;32.94
29383;BME280;16365;51.598;7.668;2022-09-03T04:19:50;100563.28;;;20.82;33.08
29383;BME280;16365;51.598;7.668;2022-09-03T04:22:17;100567.69;;;20.79;32.99
29383;BME280;16365;51.598;7.668;2022-09-03T04:24:44;100566.09;;;20.78;32.96
29383;BME280;16365;51.598;7.668;2022-09-03T04:27:10;100558.44;;;20.75;33.10
29383;BME280;16365;51.598;7.668;2022-09-03T04:29:37;100559.63;;;20.74;33.00
29383;BME280;16365;51.598;7.668;2022-09-03T04:32:04;100557.63;;;20.71;33.20
29383;BME280;16365;51.598;7.668;2022-09-03T04:34:50;100557.22;;;20.69;33.15
29383;BME280;16365;51.598;7.668;2022-09-03T04:37:16;100558.03;;;20.66;33.36
29383;BME280;16365;51.598;7.668;2022-09-03T04:39:45;100556.81;;;20.63;33.51
29383;BME280;16365;51.598;7.668;2022-09-03T04:42:11;100555.63;;;20.61;33.44
29383;BME280;16365;51.598;7.668;2022-09-03T04:44:38;100552.00;;;20.60;33.52
29383;BME280;16365;51.598;7.668;2022-09-03T04:47:06;100558.81;;;20.59;33.50
29383;BME280;16365;51.598;7.668;2022-09-03T04:49:32;100549.97;;;20.57;33.50
29383;BME280;16365;51.598;7.668;2022-09-03T04:52:00;100553.19;;;20.56;33.63
29383;BME280;16365;51.598;7.668;2022-09-03T04:54:26;100552.78;;;20.53;33.62
29383;BME280;16365;51.598;7.668;2022-09-03T04:56:55;100556.00;;;20.52;33.58
29383;BME280;16365;51.598;7.668;2022-09-03T04:59:21;100549.56;;;20.51;33.67
29383;BME280;16365;51.598;7.668;2022-09-03T05:01:48;100552.75;;;20.50;33.74
29383;BME280;16365;51.598;7.668;2022-09-03T05:04:14;100553.16;;;20.48;33.54
29383;BME280;16365;51.598;7.668;2022-09-03T05:06:41;100553.97;;;20.45;33.85
29383;BME280;16365;51.598;7.668;2022-09-03T05:09:08;100557.56;;;20.46;33.89
29383;BME280;16365;51.598;7.668;2022-09-03T05:11:35;100561.97;;;20.43;33.70
29383;BME280;16365;51.598;7.668;2022-09-03T05:14:02;100555.13;;;20.44;34.15
29383;BME280;16365;51.598;7.668;2022-09-03T05:16:31;100555.56;;;20.46;34.06
29383;BME280;16365;51.598;7.668;2022-09-03T05:18:58;100558.38;;;20.46;34.08
29383;BME280;16365;51.598;7.668;2022-09-03T05:21:26;100553.56;;;20.47;34.00
29383;BME280;16365;51.598;7.668;2022-09-03T05:23:53;100560.41;;;20.49;33.85
29383;BME280;16365;51.598;7.668;2022-09-03T05:26:25;100560.81;;;20.48;34.52
29383;BME280;16365;51.598;7.668;2022-09-03T05:28:54;100554.41;;;20.51;34.22
29383;BME280;16365;51.598;7.668;2022-09-03T05:31:22;100553.56;;;20.54;34.21
29383;BME280;16365;51.598;7.668;2022-09-03T05:33:53;100558.41;;;20.57;34.28
29383;BME280;16365;51.598;7.668;2022-09-03T05:36:21;100564.88;;;20.61;34.39
29383;BME280;16365;51.598;7.668;2022-09-03T05:38:49;100554.00;;;20.63;34.33
29383;BME280;16365;51.598;7.668;2022-09-03T05:41:17;100561.25;;;20.68;34.31
29383;BME280;16365;51.598;7.668;2022-09-03T05:43:46;100552.81;;;20.71;34.45
29383;BME280;16365;51.598;7.668;2022-09-03T05:46:17;100554.00;;;20.74;34.30
29383;BME280;16365;51.598;7.668;2022-09-03T05:48:43;100551.19;;;20.77;34.34
29383;BME280;16365;51.598;7.668;2022-09-03T05:51:15;100553.22;;;20.81;34.44
29383;BME280;16365;51.598;7.668;2022-09-03T05:53:44;100560.47;;;20.85;34.47
29383;BME280;16365;51.598;7.668;2022-09-03T05:56:19;100553.22;;;20.88;34.70
29383;BME280;16365;51.598;7.668;2022-09-03T05:58:48;100550.41;;;20.95;34.38
29383;BME280;16365;51.598;7.668;2022-09-03T06:01:16;100550.41;;;20.98;34.17
29383;BME280;16365;51.598;7.668;2022-09-03T06:03:52;100555.66;;;21.03;34.32
29383;BME280;16365;51.598;7.668;2022-09-03T06:06:19;100558.84;;;21.09;34.45
29383;BME280;16365;51.598;7.668;2022-09-03T06:08:52;100555.63;;;21.14;34.34
29383;BME280;16365;51.598;7.668;2022-09-03T06:11:18;100555.59;;;21.21;34.24
29383;BME280;16365;51.598;7.668;2022-09-03T06:13:46;100553.59;;;21.25;34.28
29383;BME280;16365;51.598;7.668;2022-09-03T06:16:13;100550.41;;;21.30;34.43
29383;BME280;16365;51.598;7.668;2022-09-03T06:18:39;100560.03;;;21.37;34.25
29383;BME280;16365;51.598;7.668;2022-09-03T06:21:06;100559.63;;;21.42;34.16
29383;BME280;16365;51.598;7.668;2022-09-03T06:23:33;100556.00;;;21.48;34.17
29383;BME280;16365;51.598;7.668;2022-09-03T06:28:34;100559.59;;;21.67;33.98
29383;BME280;16365;51.598;7.668;2022-09-03T06:31:03;100566.41;;;21.73;33.83
29383;BME280;16365;51.598;7.668;2022-09-03T06:33:31;100561.97;;;21.79;33.90
29383;BME280;16365;51.598;7.668;2022-09-03T06:35:59;100568.78;;;21.85;33.73
29383;BME280;16365;51.598;7.668;2022-09-03T06:38:31;100555.06;;;21.91;33.71
29383;BME280;16365;51.598;7.668;2022-09-03T06:41:03;100559.88;;;22.01;33.45
29383;BME280;16365;51.598;7.668;2022-09-03T06:43:32;100563.06;;;22.06;33.68
29383;BME280;16365;51.598;7.668;2022-09-03T06:46:02;100564.69;;;22.15;33.78
29383;BME280;16365;51.598;7.668;2022-09-03T06:48:31;100564.63;;;22.22;33.66
29383;BME280;16365;51.598;7.668;2022-09-03T06:50:59;100562.59;;;22.29;33.61
29383;BME280;16365;51.598;7.668;2022-09-03T06:53:29;100563.34;;;22.37;33.55
29383;BME280;16365;51.598;7.668;2022-09-03T06:56:02;100564.09;;;22.45;33.70
29383;BME280;16365;51.598;7.668;2022-09-03T06:58:32;100564.47;;;22.54;33.69
29383;BME280;16365;51.598;7.668;2022-09-03T07:01:10;100577.72;;;22.64;33.81
29383;BME280;16365;51.598;7.668;2022-09-03T07:03:39;100562.28;;;22.76;33.08
29383;BME280;16365;51.598;7.668;2022-09-03T07:06:11;100561.38;;;22.86;33.15
29383;BME280;16365;51.598;7.668;2022-09-03T07:08:39;100565.78;;;22.98;33.01
29383;BME280;16365;51.598;7.668;2022-09-03T07:11:10;100567.31;;;23.06;32.88
29383;BME280;16365;51.598;7.668;2022-09-03T07:13:39;100569.25;;;23.16;32.98
29383;BME280;16365;51.598;7.668;2022-09-03T07:16:09;100564.31;;;23.24;32.58
29383;BME280;16365;51.598;7.668;2022-09-03T07:18:36;100567.84;;;23.35;32.51
29383;BME280;16365;51.598;7.668;2022-09-03T07:21:05;100570.63;;;23.42;32.41
29383;BME280;16365;51.598;7.668;2022-09-03T07:23:34;100570.94;;;23.51;32.36
29383;BME280;16365;51.598;7.668;2022-09-03T07:26:03;100565.97;;;23.59;32.38
29383;BME280;16365;51.598;7.668;2022-09-03T07:28:31;100559.03;;;23.71;32.38
29383;BME280;16365;51.598;7.668;2022-09-03T07:31:12;100567.81;;;23.80;31.96
29383;BME280;16365;51.598;7.668;2022-09-03T07:33:39;100562.81;;;23.91;32.12
29383;BME280;16365;51.598;7.668;2022-09-03T07:36:08;100565.59;;;23.98;31.92
29383;BME280;16365;51.598;7.668;2022-09-03T07:38:36;100562.97;;;24.11;32.00
29383;BME280;16365;51.598;7.668;2022-09-03T07:41:06;100550.28;;;24.23;31.91
29383;BME280;16365;51.598;7.668;2022-09-03T07:43:44;100552.84;;;24.44;31.93
29383;BME280;16365;51.598;7.668;2022-09-03T07:46:22;100555.25;;;24.73;31.88
29383;BME280;16365;51.598;7.668;2022-09-03T07:48:50;100556.28;;;25.09;32.19
29383;BME280;16365;51.598;7.668;2022-09-03T07:51:18;100561.25;;;25.49;32.19
29383;BME280;16365;51.598;7.668;2022-09-03T07:53:47;100566.03;;;25.95;31.97
29383;BME280;16365;51.598;7.668;2022-09-03T07:56:14;100565.41;;;26.44;31.28
29383;BME280;16365;51.598;7.668;2022-09-03T07:58:41;100557.41;;;26.91;30.65
29383;BME280;16365;51.598;7.668;2022-09-03T08:01:11;100553.47;;;27.34;30.35
29383;BME280;16365;51.598;7.668;2022-09-03T08:03:43;100566.22;;;27.75;29.08
29383;BME280;16365;51.598;7.668;2022-09-03T08:06:11;100563.38;;;28.16;28.85
29383;BME280;16365;51.598;7.668;2022-09-03T08:08:38;100563.91;;;28.53;28.52
29383;BME280;16365;51.598;7.668;2022-09-03T08:11:07;100562.06;;;28.85;27.92
29383;BME280;16365;51.598;7.668;2022-09-03T08:13:40;100557.50;;;29.13;27.00
29383;BME280;16365;51.598;7.668;2022-09-03T08:16:08;100563.00;;;29.42;27.41
29383;BME280;16365;51.598;7.668;2022-09-03T08:18:36;100556.91;;;29.65;26.77
29383;BME280;16365;51.598;7.668;2022-09-03T08:21:15;100559.69;;;29.78;25.90
29383;BME280;16365;51.598;7.668;2022-09-03T08:23:44;100565.81;;;29.89;26.31
29383;BME280;16365;51.598;7.668;2022-09-03T08:26:12;100564.53;;;29.90;25.32
29383;BME280;16365;51.598;7.668;2022-09-03T08:28:39;100558.63;;;29.85;25.03
29383;BME280;16365;51.598;7.668;2022-09-03T08:33:43;100562.75;;;29.49;24.72
29383;BME280;16365;51.598;7.668;2022-09-03T08:36:25;100560.31;;;29.26;24.83
29383;BME280;16365;51.598;7.668;2022-09-03T08:38:53;100562.19;;;29.07;25.12
29383;BME280;16365;51.598;7.668;2022-09-03T08:52:13;100565.56;;;28.25;26.29
29383;BME280;16365;51.598;7.668;2022-09-03T08:54:45;100569.06;;;28.16;26.33
29383;BME280;16365;51.598;7.668;2022-09-03T08:57:15;100566.44;;;28.09;26.32
29383;BME280;16365;51.598;7.668;2022-09-03T08:59:44;100571.44;;;28.05;27.12
29383;BME280;16365;51.598;7.668;2022-09-03T09:02:50;100571.66;;;27.98;26.52
29383;BME280;16365;51.598;7.668;2022-09-03T09:05:59;100579.88;;;27.96;26.59
29383;BME280;16365;51.598;7.668;2022-09-03T09:09:06;100571.75;;;27.95;26.85
29383;BME280;16365;51.598;7.668;2022-09-03T09:11:57;100572.56;;;27.95;27.11
29383;BME280;16365;51.598;7.668;2022-09-03T09:14:53;100568.09;;;27.94;27.11
29383;BME280;16365;51.598;7.668;2022-09-03T09:17:47;100563.56;;;27.97;26.94
29383;BME280;16365;51.598;7.668;2022-09-03T09:20:29;100567.09;;;28.01;27.11
29383;BME280;16365;51.598;7.668;2022-09-03T09:23:06;100566.09;;;28.07;27.19
29383;BME280;16365;51.598;7.668;2022-09-03T09:25:43;100555.63;;;28.17;26.71
29383;BME280;16365;51.598;7.668;2022-09-03T09:28:22;100552.78;;;28.30;26.86
29383;BME280;16365;51.598;7.668;2022-09-03T09:30:53;100547.56;;;28.41;26.57
29383;BME280;16365;51.598;7.668;2022-09-03T09:33:21;100542.69;;;28.54;26.73
29383;BME280;16365;51.598;7.668;2022-09-03T09:35:48;100548.84;;;28.65;26.48
29383;BME280;16365;51.598;7.668;2022-09-03T09:38:26;100538.44;;;28.72;26.34
29383;BME280;16365;51.598;7.668;2022-09-03T09:40:53;100529.41;;;28.86;26.13
29383;BME280;16365;51.598;7.668;2022-09-03T09:43:22;100530.78;;;28.94;26.44
29383;BME280;16365;51.598;7.668;2022-09-03T09:45:51;100521.88;;;29.05;26.14
29383;BME280;16365;51.598;7.668;2022-09-03T09:51:10;100522.72;;;29.27;26.07
29383;BME280;16365;51.598;7.668;2022-09-03T09:53:38;100525.06;;;29.41;25.62
29383;BME280;16365;51.598;7.668;2022-09-03T09:56:06;100526.44;;;29.50;25.72
29383;BME280;16365;51.598;7.668;2022-09-03T09:58:34;100529.03;;;29.57;25.52
29383;BME280;16365;51.598;7.668;2022-09-03T10:01:16;100533.84;;;29.60;25.30
29383;BME280;16365;51.598;7.668;2022-09-03T10:03:50;100529.13;;;29.66;24.90
29383;BME280;16365;51.598;7.668;2022-09-03T10:06:25;100524.88;;;29.70;25.19
29383;BME280;16365;51.598;7.668;2022-09-03T10:09:21;100520.47;;;29.79;25.05
29383;BME280;16365;51.598;7.668;2022-09-03T10:14:27;100518.81;;;29.90;24.88
29383;BME280;16365;51.598;7.668;2022-09-03T10:17:04;100523.13;;;29.95;24.96
29383;BME280;16365;51.598;7.668;2022-09-03T10:20:04;100522.19;;;29.98;24.91
29383;BME280;16365;51.598;7.668;2022-09-03T10:22:56;100512.84;;;30.07;25.02
29383;BME280;16365;51.598;7.668;2022-09-03T10:25:28;100511.44;;;30.11;24.90
29383;BME280;16365;51.598;7.668;2022-09-03T10:27:58;100512.50;;;30.17;24.87
29383;BME280;16365;51.598;7.668;2022-09-03T10:30:28;100512.31;;;30.21;24.82
29383;BME280;16365;51.598;7.668;2022-09-03T10:33:22;100506.47;;;30.25;24.83
29383;BME280;16365;51.598;7.668;2022-09-03T10:36:04;100512.38;;;30.30;24.34
29383;BME280;16365;51.598;7.668;2022-09-03T10:38:33;100495.38;;;30.36;24.78
29383;BME280;16365;51.598;7.668;2022-09-03T10:41:15;100507.19;;;30.38;24.59
29383;BME280;16365;51.598;7.668;2022-09-03T10:46:44;100507.25;;;30.56;25.03
29383;BME280;16365;51.598;7.668;2022-09-03T10:52:30;100497.47;;;30.76;24.73
29383;BME280;16365;51.598;7.668;2022-09-03T10:55:18;100494.63;;;30.85;24.82
29383;BME280;16365;51.598;7.668;2022-09-03T11:00:21;100494.66;;;31.03;24.45
29383;BME280;16365;51.598;7.668;2022-09-03T11:08:28;100491.06;;;31.30;24.00
29383;BME280;16365;51.598;7.668;2022-09-03T11:11:06;100485.78;;;31.38;23.91
29383;BME280;16365;51.598;7.668;2022-09-03T11:13:44;100487.06;;;31.46;23.40
29383;BME280;16365;51.598;7.668;2022-09-03T11:16:27;100484.03;;;31.50;23.75
29383;BME280;16365;51.598;7.668;2022-09-03T11:19:01;100484.34;;;31.52;23.20
29383;BME280;16365;51.598;7.668;2022-09-03T11:21:30;100484.34;;;31.52;23.21
29383;BME280;16365;51.598;7.668;2022-09-03T11:26:32;100477.53;;;31.49;23.61
29383;BME280;16365;51.598;7.668;2022-09-03T11:29:03;100483.25;;;31.49;24.05
29383;BME280;16365;51.598;7.668;2022-09-03T11:31:57;100488.66;;;31.47;24.29
29383;BME280;16365;51.598;7.668;2022-09-03T11:34:28;100483.88;;;31.53;24.04
29383;BME280;16365;51.598;7.668;2022-09-03T11:37:27;100482.44;;;31.58;24.81
29383;BME280;16365;51.598;7.668;2022-09-03T11:42:37;100468.41;;;31.78;24.43
29383;BME280;16365;51.598;7.668;2022-09-03T11:47:55;100474.91;;;31.97;23.97
29383;BME280;16365;51.598;7.668;2022-09-03T11:50:29;100472.84;;;31.97;23.98
29383;BME280;16365;51.598;7.668;2022-09-03T11:53:08;100479.66;;;32.00;24.14
29383;BME280;16365;51.598;7.668;2022-09-03T11:58:34;100477.75;;;32.06;24.42
29383;BME280;16365;51.598;7.668;2022-09-03T12:01:06;100476.94;;;32.06;24.17
29383;BME280;16365;51.598;7.668;2022-09-03T12:04:06;100475.53;;;32.01;24.12
29383;BME280;16365;51.598;7.668;2022-09-03T12:06:47;100478.88;;;31.99;23.90
29383;BME280;16365;51.598;7.668;2022-09-03T12:18:09;100466.47;;;31.93;23.99
29383;BME280;16365;51.598;7.668;2022-09-03T12:20:47;100467.75;;;31.92;24.34
29383;BME280;16365;51.598;7.668;2022-09-03T12:23:33;100475.25;;;31.90;23.94
29383;BME280;16365;51.598;7.668;2022-09-03T12:26:06;100465.34;;;31.91;23.99
29383;BME280;16365;51.598;7.668;2022-09-03T12:28:37;100466.19;;;31.91;23.72
29383;BME280;16365;51.598;7.668;2022-09-03T12:31:16;100468.72;;;31.89;23.92
29383;BME280;16365;51.598;7.668;2022-09-03T12:33:58;100473.66;;;31.89;24.11
29383;BME280;16365;51.598;7.668;2022-09-03T12:36:35;100472.06;;;31.88;24.01
29383;BME280;16365;51.598;7.668;2022-09-03T12:39:22;100472.53;;;31.86;24.17
29383;BME280;16365;51.598;7.668;2022-09-03T12:42:17;100460.91;;;31.90;24.17
29383;BME280;16365;51.598;7.668;2022-09-03T12:44:46;100470.13;;;31.94;24.35
29383;BME280;16365;51.598;7.668;2022-09-03T12:47:14;100469.63;;;31.95;24.25
29383;BME280;16365;51.598;7.668;2022-09-03T12:50:22;100471.72;;;31.95;24.50
29383;BME280;16365;51.598;7.668;2022-09-03T12:52:53;100463.44;;;31.97;24.29
29383;BME280;16365;51.598;7.668;2022-09-03T12:55:37;100469.34;;;31.93;24.12
29383;BME280;16365;51.598;7.668;2022-09-03T12:58:23;100471.91;;;31.91;24.75
29383;BME280;16365;51.598;7.668;2022-09-03T13:00:58;100463.31;;;31.91;24.70
29383;BME280;16365;51.598;7.668;2022-09-03T13:03:30;100469.84;;;31.92;24.73
29383;BME280;16365;51.598;7.668;2022-09-03T13:06:05;100465.69;;;31.93;24.68
29383;BME280;16365;51.598;7.668;2022-09-03T13:08:48;100467.75;;;31.92;24.76
29383;BME280;16365;51.598;7.668;2022-09-03T13:11:18;100462.03;;;31.92;24.45
29383;BME280;16365;51.598;7.668;2022-09-03T13:13:55;100462.81;;;31.93;24.47
29383;BME280;16365;51.598;7.668;2022-09-03T13:22:00;100459.28;;;31.98;24.71
29383;BME280;16365;51.598;7.668;2022-09-03T13:30:02;100456.72;;;32.00;24.29
29383;BME280;16365;51.598;7.668;2022-09-03T13:32:49;100451.47;;;31.98;24.80
29383;BME280;16365;51.598;7.668;2022-09-03T13:35:32;100455.94;;;31.99;24.80
29383;BME280;16365;51.598;7.668;2022-09-03T13:38:08;100454.34;;;31.98;24.72
29383;BME280;16365;51.598;7.668;2022-09-03T13:41:19;100457.22;;;31.98;24.63
29383;BME280;16365;51.598;7.668;2022-09-03T13:52:04;100453.28;;;32.20;24.77
29383;BME280;16365;51.598;7.668;2022-09-03T13:54:41;100448.19;;;32.24;24.57
29383;BME280;16365;51.598;7.668;2022-09-03T13:59:57;100441.47;;;32.36;24.47
29383;BME280;16365;51.598;7.668;2022-09-03T14:02:41;100447.16;;;32.45;24.08
29383;BME280;16365;51.598;7.668;2022-09-03T14:05:16;100445.72;;;32.50;24.09
29383;BME280;16365;51.598;7.668;2022-09-03T14:10:44;100456.31;;;32.59;24.14
29383;BME280;16365;51.598;7.668;2022-09-03T14:13:29;100454.56;;;32.61;24.17
29383;BME280;16365;51.598;7.668;2022-09-03T14:16:06;100448.66;;;32.65;23.84
29383;BME280;16365;51.598;7.668;2022-09-03T14:18:45;100460.31;;;32.61;23.79
29383;BME280;16365;51.598;7.668;2022-09-03T14:22:09;100462.88;;;32.59;23.77
29383;BME280;16365;51.598;7.668;2022-09-03T14:24:57;100461.78;;;32.57;23.59
29383;BME280;16365;51.598;7.668;2022-09-03T14:27:02;100460.66;;;32.54;23.84
29383;BME280;16365;51.598;7.668;2022-09-03T14:29:34;100464.69;;;32.47;23.88
29383;BME280;16365;51.598;7.668;2022-09-03T14:32:10;100458.31;;;32.43;23.94
29383;BME280;16365;51.598;7.668;2022-09-03T14:37:46;100456.13;;;32.38;24.40
29383;BME280;16365;51.598;7.668;2022-09-03T14:40:26;100462.97;;;32.32;24.47
29383;BME280;16365;51.598;7.668;2022-09-03T15:00:26;100476.66;;;31.94;24.94
29383;BME280;16365;51.598;7.668;2022-09-03T15:03:37;100476.88;;;31.82;25.09
29383;BME280;16365;51.598;7.668;2022-09-03T15:12:20;100473.22;;;31.63;25.48
29383;BME280;16365;51.598;7.668;2022-09-03T15:14:53;100470.50;;;31.59;25.69
29383;BME280;16365;51.598;7.668;2022-09-03T15:36:51;100489.78;;;31.40;26.24
29383;BME280;16365;51.598;7.668;2022-09-03T15:41:55;100487.41;;;31.39;25.91
29383;BME280;16365;51.598;7.668;2022-09-03T15:44:25;100491.84;;;31.40;26.40
29383;BME280;16365;51.598;7.668;2022-09-03T15:46:58;100492.34;;;31.38;26.23
29383;BME280;16365;51.598;7.668;2022-09-03T15:49:53;100487.84;;;31.37;25.70
29383;BME280;16365;51.598;7.668;2022-09-03T15:57:54;100492.16;;;31.33;25.88
29383;BME280;16365;51.598;7.668;2022-09-03T16:00:38;100490.13;;;31.33;25.73
29383;BME280;16365;51.598;7.668;2022-09-03T16:03:15;100492.63;;;31.31;25.51
29383;BME280;16365;51.598;7.668;2022-09-03T16:06:17;100494.53;;;31.25;25.59
29383;BME280;16365;51.598;7.668;2022-09-03T16:08:53;100497.84;;;31.23;25.31
29383;BME280;16365;51.598;7.668;2022-09-03T16:11:44;100502.16;;;31.19;25.34
29383;BME280;16365;51.598;7.668;2022-09-03T16:14:25;100499.47;;;31.15;25.43
29383;BME280;16365;51.598;7.668;2022-09-03T16:19:57;100504.03;;;31.04;25.42
29383;BME280;16365;51.598;7.668;2022-09-03T16:22:31;100507.69;;;31.04;25.46
29383;BME280;16365;51.598;7.668;2022-09-03T16:25:06;100508.66;;;31.01;25.63
29383;BME280;16365;51.598;7.668;2022-09-03T16:27:43;100496.56;;;30.97;25.28
29383;BME280;16365;51.598;7.668;2022-09-03T16:38:44;100510.84;;;30.88;25.42